Stunt Ranch Reserve, Santa Monica Mtns, California Weather observations

Data are for 10 minute period ending at time listed.
 Day   Time   Solar   Ave.   Ave.  Ave.  Vector  Max.   Baro.   Total    
  of    of     Rad.   Air    Rel.  Wind   Wind   Wind  Press.  Precip.   
Year   Day            Temp.  Hum.  Speed  Dir.   Gust                    
2014   (PST)  Kw/m2    F      %     mph   deg.    mph    mb.     in.     
-------------------------------------------------------------------------
 239    0:10   0.00   68.2    40    0.0     0     0.0   969.9    0.00 
 239    0:20   0.00   68.5    39    0.0   111     0.3   969.9    0.00 
 239    0:30   0.00   68.8    40    0.3    57     1.3   969.9    0.00 
 239    0:40   0.00   68.8    39    0.1   192     1.8   969.9    0.00 
 239    0:50   0.00   70.6    37    0.6   167     2.5   969.9    0.00 
 239    1:00   0.00   71.4    36    0.5   249     1.8   969.9    0.00 
 239    1:10   0.00   70.2    38    0.3   164     1.2   969.9    0.00 
 239    1:20   0.00   69.6    39    0.8   126     1.6   969.9    0.00 
 239    1:30   0.00   68.9    40    1.1   124     1.9   969.9    0.00 
 239    1:40   0.00   69.0    39    1.2   220     2.4   969.9    0.00 
 239    1:50   0.00   68.9    40    1.4   279     2.0   969.9    0.00 
 239    2:00   0.00   69.0    39    0.2   294     1.4   969.9    0.00 
 239    2:10   0.00   69.2    38    0.9   114     1.5   969.9    0.00 
 239    2:20   0.00   68.7    39    1.2   257     2.2   969.9    0.00 
 239    2:30   0.00   69.7    37    0.9   271     2.0   969.9    0.00 
 239    2:40   0.00   70.4    36    0.8   338     1.5   969.9    0.00 
 239    2:50   0.00   70.6    36    0.2   289     0.9   969.9    0.00 
 239    3:00   0.00   69.4    38    0.7   318     1.5   969.9    0.00 
 239    3:10   0.00   68.4    40    0.2   282     0.6   969.9    0.00 
 239    3:20   0.00   68.4    39    0.0   316     0.7   969.9    0.00 
 239    3:30   0.00   68.5    39    0.0     0     0.0   969.9    0.00 
 239    3:40   0.00   68.9    38    0.0     0     0.0   969.9    0.00 
 239    3:50   0.00   69.1    38    0.5   245     1.6   970.2    0.00 
 239    4:00   0.00   68.9    38    0.7    15     1.3   970.2    0.00 
 239    4:10   0.00   68.6    39    0.4    26     1.2   970.2    0.00 
 239    4:20   0.00   67.3    41    1.0   211     2.0   970.2    0.00 
 239    4:30   0.00   67.0    41    2.1   276     2.9   970.5    0.00 
 239    4:40   0.00   67.0    41    1.7   271     2.6   970.5    0.00 
 239    4:50   0.00   66.8    42    0.4   253     2.2   970.5    0.00 
 239    5:00   0.00   66.6    42    0.1   286     1.1   970.9    0.00 
 239    5:10   0.00   66.5    43    0.5   289     1.4   970.9    0.00 
 239    5:20   0.00   66.3    43    0.6   240     1.9   970.9    0.00 
 239    5:30   0.00   66.2    44    0.5   298     1.3   970.9    0.00 
 239    5:40   0.01   65.9    44    0.3   300     1.2   971.2    0.00 
 239    5:50   0.01   65.9    44    0.1   340     0.9   971.2    0.00 
 239    6:00   0.01   66.0    44    1.1   281     2.5   971.2    0.00 
 239    6:10   0.01   65.7    45    0.1   281     0.9   971.2    0.00 
 239    6:20   0.03   65.9    45    0.7   124     1.2   971.2    0.00 
 239    6:30   0.09   66.8    44    0.4   119     1.3   971.2    0.00 
 239    6:40   0.17   70.7    40    0.3     6     1.6   971.2    0.00 
 239    6:50   0.20   72.3    36    1.3   102     2.0   971.2    0.00 
 239    7:00   0.23   73.8    37    0.2    39     1.1   971.2    0.00 
 239    7:10   0.27   75.6    36    0.8    80     3.0   971.2    0.00 
 239    7:20   0.31   75.7    34    1.2    72     2.7   971.2    0.00 
 239    7:30   0.34   75.9    33    1.6    42     2.9   971.2    0.00 
 239    7:40   0.38   77.5    33    1.1   337     2.5   970.9    0.00 
 239    7:50   0.41   79.6    31    0.7   299     2.0   970.9    0.00 
 239    8:00   0.45   80.3    30    1.1   298     2.0   970.9    0.00 
 239    8:10   0.48   82.1    29    1.5   299     2.7   970.9    0.00 
 239    8:20   0.51   82.5    28    1.9   291     3.6   970.9    0.00 
 239    8:30   0.54   83.3    27    2.1   304     3.3   970.9    0.00 
 239    8:40   0.57   84.1    27    2.6   288     4.7   971.2    0.00 
 239    8:50   0.60   86.6    26    2.7   284     4.9   971.2    0.00 
 239    9:00   0.63   87.9    26    2.9   288     5.2   971.6    0.00 
 239    9:10   0.66   88.4    25    3.3   285     6.5   971.6    0.00 
 239    9:20   0.69   88.7    24    3.3   290     6.6   971.6    0.00 
 239    9:30   0.71   89.1    22    3.3   288     7.6   971.6    0.00 
 239    9:40   0.74   90.6    20    3.8   280     7.4   971.9    0.00 
 239    9:50   0.76   91.1    21    3.9   293     7.7   971.9    0.00 
 239   10:00   0.78   92.8    21    3.3   292     8.6   971.9    0.00 
 239   10:10   0.80   92.9    21    3.3   292     8.1   971.9    0.00 
 239   10:20   0.82   93.2    20    3.9   288    11.0   971.9    0.00 
 239   10:30   0.84   94.3    20    4.0   284    10.2   971.9    0.00 
 239   10:40   0.85   94.5    19    3.7   290     9.2   971.9    0.00 
 239   10:50   0.86   94.9    19    2.7   288    10.2   971.6    0.00 
 239   11:00   0.88   94.6    20    4.2   296    11.0   971.6    0.00 
 239   11:10   0.89   93.9    20    4.0   301    10.4   971.6    0.00 
 239   11:20   0.90   94.6    20    3.5   292     8.0   971.6    0.00 
 239   11:30   0.90   95.8    19    2.0   314     6.2   971.6    0.00 
 239   11:40   0.91   95.5    19    2.2   317     7.9   971.6    0.00 
 239   11:50   0.91   96.2    18    2.7   328     9.2   971.6    0.00 
 239   12:00   0.92   96.2    17    4.2   286     9.4   971.2    0.00 
 239   12:10   0.92   96.1    17    4.5   292     9.5   971.2    0.00 
 239   12:20   0.91   96.8    16    2.4   293     9.7   971.2    0.00 
 239   12:30   0.90   97.8    16    2.9   278    10.5   971.2    0.00 
 239   12:40   0.90   96.8    17    2.5   295     8.6   971.2    0.00 
 239   12:50   0.89   97.9    16    1.7   312     7.0   971.2    0.00 
 239   13:00   0.84   97.8    16    2.1   320    12.2   970.9    0.00 
 239   13:10   0.87   98.1    16    1.8   305     6.8   970.9    0.00 
 239   13:20   0.86   97.0    16    2.7   300     9.0   970.9    0.00 
 239   13:30   0.84   97.7    16    3.3   280     9.1   970.9    0.00 
 239   13:40   0.82   95.8    17    2.4   274    10.4   970.9    0.00 
 239   13:50   0.81   95.5    17    3.2   274     9.2   970.9    0.00 
 239   14:00   0.79   94.9    18    3.4   268    11.0   970.5    0.00 
 239   14:10   0.77   95.1    18    2.4   279     8.6   970.5    0.00 
 239   14:20   0.74   93.5    19    3.2   246     9.2   970.5    0.00 
 239   14:30   0.72   94.5    20    3.1   264     8.1   970.2    0.00 
 239   14:40   0.69   93.9    20    4.3   238     9.6   970.2    0.00 
 239   14:50   0.67   92.4    22    4.9   230    12.8   970.2    0.00 
 239   15:00   0.64   92.8    21    2.7   246     8.6   970.2    0.00 
 239   15:10   0.61   94.5    20    2.8   261     8.7   970.2    0.00 
 239   15:20   0.58   93.9    21    1.8   302     5.7   970.2    0.00 
 239   15:30   0.55   94.5    21    1.6   277     5.8   970.2    0.00 
 239   15:40   0.52   93.8    21    2.4   292     6.8   970.2    0.00 
 239   15:50   0.49   93.8    21    3.8   305    10.5   969.9    0.00 
 239   16:00   0.46   95.0    22    2.8   297    10.6   969.9    0.00 
 239   16:10   0.42   94.9    22    2.7   288     9.9   969.9    0.00 
 239   16:20   0.39   94.3    22    3.7   295     8.5   969.9    0.00 
 239   16:30   0.35   93.5    22    3.7   291     8.6   970.2    0.00 
 239   16:40   0.32   93.3    22    3.8   280     9.6   970.2    0.00 
 239   16:50   0.28   93.6    22    2.0   289     6.3   970.2    0.00 
 239   17:00   0.25   93.3    22    2.8   297     6.9   970.2    0.00 
 239   17:10   0.21   92.5    23    2.3   287     6.1   970.2    0.00 
 239   17:20   0.18   91.3    22    4.3   319    10.2   969.9    0.00 
 239   17:30   0.15   90.3    22    4.9   315    13.3   969.9    0.00 
 239   17:40   0.12   88.7    23    5.1   316    11.1   969.9    0.00 
 239   17:50   0.08   87.3    23    4.3   314    10.9   969.9    0.00 
 239   18:00   0.02   86.0    24    2.5   303     9.0   969.9    0.00 
 239   18:10   0.01   84.4    26    1.5   308     5.8   969.9    0.00 
 239   18:20   0.01   83.2    28    0.8   297     4.7   969.5    0.00 
 239   18:30   0.01   81.8    30    0.7   292     3.2   969.5    0.00 
 239   18:40   0.00   80.5    31    0.5   237     2.3   969.5    0.00 
 239   18:50   0.00   80.0    32    0.2   258     1.7   969.5    0.00 
 239   19:00   0.00   79.4    32    0.8   251     2.0   969.5    0.00 
 239   19:10   0.00   78.7    31    1.6   240     3.2   969.5    0.00 
 239   19:20   0.00   78.0    30    2.9   199     4.3   969.9    0.00 
 239   19:30   0.00   77.8    30    3.8   202     5.9   969.9    0.00 
 239   19:40   0.00   78.0    27    4.3   199     6.4   969.9    0.00 
 239   19:50   0.00   77.9    25    3.6   209     5.6   969.9    0.00 
 239   20:00   0.00   77.3    24    3.4   219     4.7   970.2    0.00 
 239   20:10   0.00   77.2    23    3.6   224     5.0   970.2    0.00 
 239   20:20   0.00   77.0    23    2.5   238     4.5   970.2    0.00 
 239   20:30   0.00   76.5    23    1.4   300     3.5   970.2    0.00 
 239   20:40   0.00   76.6    25    0.1    86     1.0   970.2    0.00 
 239   20:50   0.00   76.3    24    0.1   157     1.8   970.2    0.00 
 239   21:00   0.00   75.9    26    0.4   314     1.2   970.5    0.00 
 239   21:10   0.00   75.5    27    1.1   293     2.1   970.5    0.00 
 239   21:20   0.00   75.1    27    1.0   276     2.0   970.5    0.00 
 239   21:30   0.00   74.5    28    1.6   266     2.4   970.5    0.00 
 239   21:40   0.00   73.7    29    0.8   262     2.2   970.5    0.00 
 239   21:50   0.00   72.6    30    0.7   248     2.3   970.9    0.00 
 239   22:00   0.00   72.7    31    2.0   249     2.9   970.9    0.00 
 239   22:10   0.00   72.3    32    2.2   244     3.1   970.9    0.00 
 239   22:20   0.00   72.0    33    2.6   236     3.4   970.9    0.00 
 239   22:30   0.00   71.9    34    2.0   252     3.1   970.9    0.00 
 239   22:40   0.00   71.8    34    1.6   215     2.9   970.9    0.00 
 239   22:50   0.00   71.7    34    0.7   190     2.3   970.9    0.00 
 239   23:00   0.00   71.8    35    0.4   332     1.5   970.9    0.00 
 239   23:10   0.00   72.3    34    1.2   218     2.5   970.9    0.00 
 239   23:20   0.00   73.8    30    3.8   240     7.5   970.9    0.00 
 239   23:30   0.00   74.3    30    3.2   238     6.4   970.9    0.00 
 239   23:40   0.00   74.1    30    3.8   242     6.4   970.9    0.00 
 239   23:50   0.00   74.2    29    2.9   233     6.7   970.9    0.00 
 240    0:00   0.00   74.3    29    2.5   216     4.5   970.9    0.00 

Return to Stunt Ranch Reserve graphs page.


Western Regional Climate Center,wrcc@dri.edu